createdAt,value
2023-03-08T00:02:49.865Z,92025.05
2023-03-08T00:07:56.989Z,92032.64
2023-03-08T00:13:04.019Z,92042.88
2023-03-08T00:18:15.958Z,92048.11
2023-03-08T00:23:23.605Z,92046.78
2023-03-08T00:28:30.696Z,92051.69
2023-03-08T00:33:38.327Z,92051.55
2023-03-08T00:38:46.561Z,92054.99
2023-03-08T00:43:53.837Z,92041.72
2023-03-08T00:49:01.102Z,92037.83
2023-03-08T00:54:07.960Z,92048.07
2023-03-08T00:59:14.864Z,92052.58
2023-03-08T01:04:22.552Z,92042.33
2023-03-08T01:09:29.265Z,92044.44
2023-03-08T01:14:36.075Z,92050.16
2023-03-08T01:19:42.945Z,92042.76
2023-03-08T01:24:51.361Z,92056.41
2023-03-08T01:29:58.909Z,92060.55
2023-03-08T01:35:06.804Z,92055.40
2023-03-08T01:40:17.146Z,92074.50
2023-03-08T01:46:04.222Z,92063.55
2023-03-08T01:51:14.514Z,92077.39
2023-03-08T01:56:22.735Z,92084.98
2023-03-08T02:01:29.958Z,92087.89
2023-03-08T02:06:37.485Z,92088.68
2023-03-08T02:11:45.781Z,92089.47
2023-03-08T02:16:52.745Z,92092.11
2023-03-08T02:22:00.009Z,92097.84
2023-03-08T02:27:19.692Z,92102.06
2023-03-08T02:32:26.468Z,92108.64
2023-03-08T02:37:34.843Z,92114.94
2023-03-08T02:42:41.867Z,92123.05
2023-03-08T02:47:48.585Z,92126.45
2023-03-08T02:52:55.456Z,92125.42
2023-03-08T02:58:02.147Z,92128.05
2023-03-08T03:03:08.912Z,92127.50
2023-03-08T03:08:15.737Z,92114.66
2023-03-08T03:13:22.489Z,92140.88
2023-03-08T03:18:29.217Z,92133.80
2023-03-08T03:23:35.907Z,92132.77
2023-03-08T03:28:42.875Z,92139.33
2023-03-08T03:33:49.965Z,92134.09
2023-03-08T03:38:57.071Z,92133.55
2023-03-08T03:44:03.796Z,92146.64
2023-03-08T03:49:10.659Z,92167.34
2023-03-08T03:54:17.528Z,92173.77
2023-03-08T03:59:26.570Z,92177.77
2023-03-08T04:04:32.712Z,92170.46
2023-03-08T04:09:39.682Z,92168.66
2023-03-08T04:14:46.583Z,92160.73
2023-03-08T04:19:53.425Z,92153.20
2023-03-08T04:25:00.607Z,92158.64
2023-03-08T04:30:09.901Z,92168.29
2023-03-08T04:35:17.166Z,92186.56
2023-03-08T04:40:24.289Z,92185.08
2023-03-08T04:45:32.274Z,92180.64
2023-03-08T04:50:39.736Z,92173.30
2023-03-08T04:55:46.582Z,92175.14
2023-03-08T05:00:53.924Z,92182.47
2023-03-08T05:06:01.118Z,92178.48
2023-03-08T05:11:09.506Z,92199.45
2023-03-08T05:16:22.197Z,92185.34
2023-03-08T05:21:29.617Z,92181.91
2023-03-08T05:26:36.427Z,92179.06
2023-03-08T05:31:44.945Z,92190.06
2023-03-08T05:36:54.540Z,92212.02
2023-03-08T05:42:01.234Z,92223.86
2023-03-08T05:47:08.447Z,92219.14
2023-03-08T05:52:15.219Z,92221.77
2023-03-08T05:57:22.006Z,92230.42
2023-03-08T06:02:31.135Z,92239.37
2023-03-08T06:07:38.402Z,92235.18
2023-03-08T06:12:45.192Z,92248.52
2023-03-08T06:17:56.501Z,92253.25
2023-03-08T06:23:03.435Z,92271.78
2023-03-08T06:28:11.542Z,92261.36
2023-03-08T06:33:24.332Z,92271.80
2023-03-08T06:38:34.218Z,92271.38
2023-03-08T06:43:41.678Z,92270.33
2023-03-08T06:48:50.874Z,92283.97
2023-03-08T06:53:57.865Z,92290.56
2023-03-08T06:59:04.949Z,92292.14
2023-03-08T07:04:12.196Z,92292.96
2023-03-08T07:09:19.210Z,92296.38
2023-03-08T07:14:26.142Z,92284.87
2023-03-08T07:19:34.259Z,92299.84
2023-03-08T07:24:41.394Z,92303.41
2023-03-08T07:29:48.648Z,92310.78
2023-03-08T07:34:56.465Z,92310.30
2023-03-08T07:40:04.983Z,92307.45
2023-03-08T07:45:14.356Z,92307.45
2023-03-08T07:50:21.997Z,92319.02
2023-03-08T07:55:28.876Z,92312.47
2023-03-08T08:00:35.795Z,92304.84
2023-03-08T08:05:42.797Z,92298.55
2023-03-08T08:10:49.618Z,92306.69
2023-03-08T08:16:04.556Z,92306.70
2023-03-08T08:21:15.824Z,92292.53
2023-03-08T08:26:24.397Z,92280.63
2023-03-08T08:31:32.752Z,92273.87
2023-03-08T08:36:39.656Z,92270.23
2023-03-08T08:41:46.602Z,92276.99
2023-03-08T08:46:53.772Z,92282.17
2023-03-08T08:52:00.969Z,92281.13
2023-03-08T08:57:08.575Z,92286.22
2023-03-08T09:02:15.746Z,92294.11
2023-03-08T09:07:22.613Z,92295.01
2023-03-08T09:12:31.329Z,92296.28
2023-03-08T09:17:39.111Z,92286.04
2023-03-08T09:22:46.263Z,92289.91
2023-03-08T09:27:54.143Z,92278.50
2023-03-08T09:33:03.071Z,92279.86
2023-03-08T09:38:09.977Z,92274.95
2023-03-08T09:43:21.265Z,92272.16
2023-03-08T09:48:31.055Z,92237.55
2023-03-08T09:53:41.676Z,92277.75
2023-03-08T09:58:53.084Z,92278.98
2023-03-08T10:04:15.913Z,92278.11
2023-03-08T10:09:40.516Z,92276.88
2023-03-08T10:14:57.620Z,92265.78
2023-03-08T10:20:09.501Z,92258.28
2023-03-08T10:25:31.853Z,92246.03
2023-03-08T10:30:43.398Z,92235.14
2023-03-08T10:36:21.415Z,92219.38
2023-03-08T10:41:29.940Z,92205.05
2023-03-08T10:46:37.008Z,92212.56
2023-03-08T10:52:02.503Z,92185.08
2023-03-08T10:57:16.648Z,92172.73
2023-03-08T11:02:24.151Z,92173.41
2023-03-08T11:07:34.435Z,92159.08
2023-03-08T11:12:41.706Z,92154.41
2023-03-08T11:17:57.997Z,92139.62
2023-03-08T11:23:24.472Z,92142.75
2023-03-08T11:28:58.074Z,92130.28
2023-03-08T11:34:21.312Z,92113.16
2023-03-08T11:40:04.213Z,92099.45
2023-03-08T11:45:45.579Z,92084.66
2023-03-08T11:51:17.809Z,92077.38
2023-03-08T11:56:38.152Z,92066.97
2023-03-08T12:02:12.172Z,92072.77
2023-03-08T12:07:32.972Z,92060.78
2023-03-08T12:13:05.893Z,92053.22
2023-03-08T12:18:35.999Z,92058.75
2023-03-08T12:24:09.604Z,92050.68
2023-03-08T12:29:22.899Z,92043.52
2023-03-08T12:34:47.389Z,92022.98
2023-03-08T12:40:05.864Z,92015.18
2023-03-08T12:45:26.482Z,92003.28
2023-03-08T12:50:37.215Z,91989.62
2023-03-08T12:55:45.769Z,91966.23
2023-03-08T13:00:59.589Z,91968.78
2023-03-08T13:06:16.997Z,91965.98
2023-03-08T13:11:24.598Z,91962.70
2023-03-08T13:16:41.879Z,91948.98
2023-03-08T13:22:02.278Z,91936.97
2023-03-08T13:27:37.142Z,91936.39
2023-03-08T13:32:43.097Z,91935.89
2023-03-08T13:38:02.545Z,91928.96
2023-03-08T13:43:11.056Z,91916.74
2023-03-08T13:48:19.551Z,91915.28
2023-03-08T13:53:34.346Z,91916.33
2023-03-08T13:58:46.182Z,91913.59
2023-03-08T14:03:55.929Z,91904.56
2023-03-08T14:09:06.185Z,91899.91
2023-03-08T14:14:25.915Z,91889.34
2023-03-08T14:19:39.832Z,91884.59
2023-03-08T14:24:48.498Z,91892.13
2023-03-08T14:30:04.884Z,91882.75
2023-03-08T14:35:27.623Z,91883.89
2023-03-08T14:40:37.472Z,91870.81
2023-03-08T14:45:59.176Z,91865.80
2023-03-08T14:51:21.913Z,91852.96
2023-03-08T14:56:30.918Z,91864.31
2023-03-08T15:01:39.027Z,91868.33
2023-03-08T15:06:46.521Z,91878.77
2023-03-08T15:11:56.490Z,91885.50
2023-03-08T15:17:03.587Z,91879.66
2023-03-08T15:22:13.728Z,91884.48
2023-03-08T15:27:20.724Z,91877.63
2023-03-08T15:32:27.731Z,91871.67
2023-03-08T15:37:34.477Z,91873.47
2023-03-08T15:42:41.303Z,91868.80
2023-03-08T15:48:06.672Z,91869.06
2023-03-08T15:53:23.276Z,91861.09
2023-03-08T15:58:23.154Z,91856.22
2023-03-08T16:03:31.474Z,91858.73
2023-03-08T16:08:38.639Z,91869.01
2023-03-08T16:13:46.070Z,91876.55
2023-03-08T16:18:52.739Z,91880.14
2023-03-08T16:24:01.108Z,91872.94
2023-03-08T16:29:07.821Z,91875.81
2023-03-08T16:34:14.790Z,91878.14
2023-03-08T16:39:21.635Z,91889.81
2023-03-08T16:44:30.809Z,91888.09
2023-03-08T16:49:38.870Z,91896.03
2023-03-08T16:54:46.333Z,91893.94
2023-03-08T16:59:53.273Z,91897.52
2023-03-08T17:05:00.123Z,91888.89
2023-03-08T17:10:08.364Z,91895.51
2023-03-08T17:15:15.134Z,91902.12
2023-03-08T17:20:22.153Z,91913.30
2023-03-08T17:25:29.275Z,91920.23
2023-03-08T17:30:36.307Z,91924.88
2023-03-08T17:35:45.063Z,91925.52
2023-03-08T17:40:52.794Z,91926.22
2023-03-08T17:46:02.426Z,91928.69
2023-03-08T17:51:13.822Z,91912.60
2023-03-08T17:56:25.631Z,91916.84
2023-03-08T18:01:33.992Z,91911.55
2023-03-08T18:06:44.038Z,91915.38
2023-03-08T18:11:51.455Z,91920.63
2023-03-08T18:16:58.184Z,91927.11
2023-03-08T18:22:06.032Z,91912.10
2023-03-08T18:27:12.919Z,91935.63
2023-03-08T18:32:20.271Z,91941.20
2023-03-08T18:37:27.209Z,91938.17
2023-03-08T18:42:34.634Z,91938.17
2023-03-08T18:47:41.902Z,91934.61
2023-03-08T18:58:12.840Z,91931.84
2023-03-08T19:03:20.439Z,91926.51
2023-03-08T19:08:27.534Z,91920.81
2023-03-08T19:13:34.629Z,91914.78
2023-03-08T19:18:41.585Z,91912.45
2023-03-08T19:23:49.309Z,91898.16
2023-03-08T19:28:56.016Z,91887.88
2023-03-08T19:34:03.103Z,91889.78
2023-03-08T19:39:13.806Z,91883.16
2023-03-08T19:44:22.160Z,91871.28
2023-03-08T19:49:32.654Z,91868.64
2023-03-08T19:54:39.672Z,91866.67
2023-03-08T19:59:46.577Z,91872.11
2023-03-08T20:04:53.811Z,91864.91
2023-03-08T20:10:10.532Z,91889.62
2023-03-08T20:15:09.962Z,91906.39
2023-03-08T20:20:16.881Z,91922.23
2023-03-08T20:25:23.864Z,91919.75
2023-03-08T20:30:31.148Z,91940.78
2023-03-08T20:35:38.008Z,91945.33
2023-03-08T20:40:44.850Z,91930.66
2023-03-08T20:45:52.223Z,91922.30
2023-03-08T20:51:03.508Z,91914.91
2023-03-08T20:56:14.340Z,91908.95
2023-03-08T21:01:28.837Z,91917.48
2023-03-08T21:06:35.753Z,91911.02
2023-03-08T21:11:43.311Z,91901.86
2023-03-08T21:16:51.039Z,91893.02
2023-03-08T21:21:57.821Z,91887.98
2023-03-08T21:27:05.111Z,91880.27
2023-03-08T21:32:12.881Z,91888.48
2023-03-08T21:37:20.075Z,91875.77
2023-03-08T21:42:27.640Z,91875.23
2023-03-08T21:47:34.911Z,91896.14
2023-03-08T21:52:41.991Z,91895.83
2023-03-08T21:57:49.772Z,91911.35
2023-03-08T22:02:56.722Z,91904.98
2023-03-08T22:08:03.504Z,91904.23
2023-03-08T22:13:10.458Z,91899.34
2023-03-08T22:18:17.562Z,91899.91
2023-03-08T22:23:26.112Z,91915.95
2023-03-08T22:28:33.021Z,91918.05
2023-03-08T22:33:40.763Z,91926.23
2023-03-08T22:38:48.166Z,91923.52
2023-03-08T22:43:55.757Z,91910.13
2023-03-08T22:49:04.312Z,91921.64
2023-03-08T22:54:19.712Z,91898.17
2023-03-08T22:59:26.586Z,91904.84
2023-03-08T23:04:33.370Z,91911.51
2023-03-08T23:09:40.219Z,91906.66
2023-03-08T23:14:47.409Z,91905.22
2023-03-08T23:19:55.254Z,91906.97
2023-03-08T23:25:02.282Z,91908.05
2023-03-08T23:30:12.814Z,91898.77
2023-03-08T23:35:20.000Z,91894.28
2023-03-08T23:40:26.764Z,91888.75
2023-03-08T23:45:33.725Z,91881.30
2023-03-08T23:50:43.944Z,91861.55
2023-03-08T23:55:50.901Z,91873.55
